Flight Track Log - Related Links

Times and Time Zones

All times are in EDT time to prevent confusion due to time zone crossing. See the AAL1054 flight status page for this flight to view local times or setup timezone preferences in your user account.

Time Position Orientation Groundspeed Altitude Reporting Facility
EDT Latitude Longitude Course Direction KTS MPH feet Rate Location/Type
Sun 07:43:56 PM 32.9000 -97.0500 180° South 158 182 1,500  Level Dallas / Fort Worth TRACON
Sun 07:45:08 PM 32.9667 -97.0667 348° North 238 274 3,700 2,481 Climbing Dallas / Fort Worth TRACON
Sun 07:46:00 PM 32.5309 -96.9897 196° South  Level FlightAware Approximate
Sun 07:46:09 PM 33.0167 -97.1167 320° Northwest 262 302 7,000  Level Dallas / Fort Worth TRACON
Sun 07:47:00 PM 32.4115 -97.0177 190° South  Level FlightAware Approximate
Sun 07:47:09 PM 33.0000 -97.2167 259° West 274 315 9,100  Level Dallas / Fort Worth TRACON
Sun 07:47:40 PM 32.9878 -97.2550 249° West 294 338 9,600 989 Climbing Fort Worth Center
Sun 07:48:00 PM 32.2923 -97.0470 196° South  Level FlightAware Approximate
Sun 07:48:40 PM 32.9147 -97.2972 206° Southwest 301 346 10,600  Level Fort Worth Center
Sun 07:49:00 PM 32.1708 -97.0500 180° South  Level FlightAware Approximate
Sun 07:49:40 PM 32.7936 -97.2872 176° South 337 388 12,700  Level Fort Worth Center
Sun 07:50:40 PM 32.6850 -97.2456 162° South 397 457 15,500 2,650 Climbing Fort Worth Center
Sun 07:51:40 PM 32.5722 -97.1914 158° South 423 487 18,000 2,067 Climbing Fort Worth Center
Sun 07:53:40 PM 32.3297 -97.0814 159° South 462 532 21,700 1,767 Climbing Fort Worth Center
Sun 07:54:40 PM 32.1983 -97.0597 172° South 474 545 23,300 1,650 Climbing Fort Worth Center
Sun 07:55:40 PM 32.0647 -97.0678 183° South 479 551 25,000 1,350 Climbing Fort Worth Center
Sun 07:56:40 PM 31.9333 -97.1075 194° South 479 551 26,000 500 Climbing Fort Worth Center
Sun 07:57:40 PM 31.8058 -97.1419 193° South 479 551 26,000  Level Fort Worth Center
Sun 07:58:40 PM 31.6767 -97.1767 193° South 479 551 26,000  Level Fort Worth Center
Sun 08:00:09 PM 31.5006 -97.2261 193° South 477 549 26,000  Level Houston Center
Sun 08:01:11 PM 31.3692 -97.2606 193° South 478 550 26,000  Level Houston Center
Sun 08:02:13 PM 31.2189 -97.3025 193° South 473 544 26,000  Level Houston Center
Sun 08:03:15 PM 31.0906 -97.3378 193° South 473 544 26,000 -97 Level Houston Center
Sun 08:04:17 PM 30.9653 -97.3731 194° South 470 541 25,800 -488 Descending Houston Center
Sun 08:05:18 PM 30.8386 -97.4058 193° South 474 545 25,000 -878 Descending Houston Center
Sun 08:06:20 PM 30.7108 -97.4400 193° South 470 541 24,000 -484 Descending Houston Center
Sun 08:07:22 PM 30.5600 -97.4808 193° South 474 545 24,000 -48 Level Houston Center
Sun 08:08:24 PM 30.4308 -97.5161 193° South 473 544 23,900 -1,016 Descending Houston Center
Sun 08:09:26 PM 30.3125 -97.5736 203° Southwest 454 522 21,900 -2,323 Descending Houston Center
Sun 08:10:28 PM 30.2069 -97.6489 212° Southwest 442 509 19,100 -2,800 Descending Houston Center
Sun 08:10:56 PM 30.1547 -97.6842 210° Southwest 428 493 17,700 -2,852 Descending Houston Center
Sun 08:11:29 PM 30.1053 -97.7178 210° Southwest 424 488 16,200 -2,852 Descending Houston Center
Sun 08:11:57 PM 30.0544 -97.7550 212° Southwest 415 478 14,800 -2,710 Descending Houston Center
Sun 08:12:31 PM 29.9942 -97.7950 210° Southwest 409 471 13,400 -1,700 Descending Houston Center
Sun 08:12:57 PM 29.9578 -97.8203 211° Southwest 401 461 13,100 -484 Descending Houston Center
Sun 08:13:33 PM 29.9033 -97.8572 210° Southwest 376 433 12,900 -689 Descending Houston Center
Sun 08:13:58 PM 29.8781 -97.8861 225° Southwest 348 400 12,400 -968 Descending Houston Center
Sun 08:14:35 PM 29.8406 -97.9336 228° Southwest 326 375 11,900 -982 Descending Houston Center
Sun 08:14:53 PM 29.8236 -97.9556 228° Southwest 303 349 11,500 -1,548 Descending Houston Center
Sun 08:15:37 PM 29.7778 -98.0075 225° Southwest 302 348 10,300 -1,475 Descending Houston Center
Sun 08:15:54 PM 29.7653 -98.0256 231° Southwest 294 338 10,000 -1,548 Descending Houston Center
Sun 08:16:39 PM 29.7219 -98.0778 226° Southwest 299 344 8,700 -1,900 Descending Houston Center
Sun 08:16:54 PM 29.7050 -98.0981 226° Southwest 296 341 8,100 -1,548 Descending Houston Center
Sun 08:17:41 PM 29.6614 -98.1517 227° Southwest 293 337 7,100 -1,431 Descending Houston Center
Sun 08:18:43 PM 29.6075 -98.2183 227° Southwest 286 329 5,500 -1,407 Descending Houston Center
Sun 08:19:02 PM 29.5922 -98.2392 230° Southwest 278 320 5,200 -871 Descending Houston Center
Sun 08:19:45 PM 29.5572 -98.2739 221° Southwest 248 285 4,600 -1,029 Descending Houston Center
Sun 08:20:47 PM 29.5078 -98.3203 219° Southwest 214 246 3,400 -1,016 Descending Houston Center
Sun 08:21:49 PM 29.4783 -98.3686 235° Southwest 189 217 2,500 -677 Descending Houston Center
Sun 08:22:51 PM 29.4869 -98.4128 283° West 155 178 2,000 -585 Descending Houston Center
Sun 08:23:52 PM 29.5117 -98.4450 311° West 137 158 1,300 -585 Descending Houston Center
Sun 08:24:54 PM 29.5386 -98.4783 313° West 138 159 800 -484 Descending Houston Center

Login

Don't have an account? Register now (free) for customized features, flight alerts, and more!